Latest Weather Observations for Brisbane Airport

IDQ60801

Issued at 2:02 pm EST Sunday 1 March 2015 (issued every 30 minutes, with the page automatically refreshed every 10 minutes)

About weather observations | Map of weather stations | Latest weather observations for QLD | Other Formats
Station Details ID: 040842 Name: BRISBANE AERO Lat: -27.39 Lon: 153.13 Height: 4.51 m
Data from the previous 72 hours. | See also: Recent months at Brisbane Airport
Date/Time
EST
Temp
°C
App
Temp
°C
Dew
Point
Rel
Hum
%
Delta-T
°C
Wind Press
QNH
hPa
Press
MSL
hPa
Rain
since 9 am
mm
Dir
 
Spd
km/h
Gust
km/h
Spd
kts
Gust
kts
01/02:00pm 28.3 28.4 20.4 62 5.2 NE 20 28 11 15 1008.4 - 0.0
01/01:30pm 28.4 28.7 20.7 63 5.1 NNE 20 26 11 14 1008.8 - 0.0
01/01:00pm 28.6 29.1 20.8 62 5.2 NNE 19 26 10 14 1009.0 - 0.0
01/12:30pm 28.6 28.9 19.7 58 5.8 NE 17 26 9 14 1009.5 - 0.0
01/12:00pm 28.4 29.1 20.5 62 5.2 NNE 17 22 9 12 1009.8 1009.8 0.0
01/11:30am 28.1 29.8 20.9 65 4.8 NNE 13 19 7 10 1010.1 - 0.0
01/11:00am 27.8 29.5 21.0 66 4.5 N 13 19 7 10 1010.5 - 0.0
01/10:30am 27.9 29.8 21.3 67 4.4 N 13 19 7 10 1011.0 - 0.0
01/10:00am 27.8 29.6 21.2 67 4.4 N 13 17 7 9 1011.2 - 0.0
01/09:30am 26.6 28.3 21.0 71 3.7 NNE 13 17 7 9 1011.2 - 0.0
01/09:00am 25.9 29.3 20.9 74 3.3 N 4 11 2 6 1011.1 1011.1 0.0
01/08:30am 26.3 30.1 21.6 75 3.1 NNE 4 9 2 5 1011.0 - 0.0
01/07:00am 22.7 24.5 21.2 91 1.0 SSW 13 15 7 8 1010.5 - 0.0
01/06:30am 22.7 25.3 21.2 91 1.0 SSW 9 11 5 6 1010.4 - 0.0
01/06:00am 21.9 24.2 20.7 93 0.8 SW 9 11 5 6 1010.1 1010.1 0.0
01/05:30am 22.4 24.7 20.7 90 1.1 W 9 11 5 6 1009.8 - 0.0
01/05:00am 22.6 25.4 20.9 90 1.1 SW 7 9 4 5 1009.7 - 0.0
01/04:30am 22.4 26.5 20.7 90 1.1 CALM 0 4 0 2 1009.6 - 0.0
01/04:00am 23.4 26.2 20.8 85 1.7 NE 7 9 4 5 1009.4 - 0.0
01/03:30am 23.0 25.6 20.5 86 1.6 NE 7 9 4 5 1009.5 - 0.0
01/03:00am 22.6 25.3 20.6 88 1.3 NNE 7 11 4 6 1009.5 1009.5 0.0
01/02:30am 22.8 25.4 20.5 87 1.5 NE 7 9 4 5 1009.6 - 0.0
01/02:00am 23.0 25.8 20.4 85 1.7 NE 6 7 3 4 1009.7 - 0.0
01/01:30am 23.2 25.4 20.4 84 1.8 NE 9 11 5 6 1010.0 - 0.0
01/01:00am 23.5 25.7 20.3 82 2.1 NE 9 11 5 6 1010.3 - 0.0
01/12:30am 23.9 26.1 20.5 81 2.2 NE 9 11 5 6 1010.6 - 0.0
 
Date/Time
EST
Temp
°C
App
Temp
°C
Dew
Point
Rel
Hum
%
Delta-T
°C
Wind Press
QNH
hPa
Press
MSL
hPa
Rain
since 9 am
mm
Dir
 
Spd
km/h
Gust
km/h
Spd
kts
Gust
kts
28/11:30pm 24.8 26.1 20.2 75 3.0 NE 13 17 7 9 1011.1 - 0.0
28/11:00pm 24.7 26.8 20.9 79 2.5 NE 11 15 6 8 1011.3 - 0.0
28/10:30pm 24.9 27.6 20.6 77 2.8 ENE 7 13 4 7 1011.6 - 0.0
28/10:00pm 24.9 27.3 20.1 74 3.1 NE 7 11 4 6 1011.4 - 0.0
28/09:30pm 25.2 27.1 19.8 72 3.5 NE 9 13 5 7 1011.3 - 0.0
28/09:00pm 25.1 26.7 20.0 73 3.3 ENE 11 19 6 10 1011.3 1011.3 0.0
28/08:30pm 25.3 26.6 20.2 73 3.3 NE 13 17 7 9 1011.2 - 0.0
28/08:00pm 25.5 26.9 20.3 73 3.4 NE 13 15 7 8 1011.0 - 0.0
28/07:30pm 25.3 26.0 19.7 71 3.6 NE 15 20 8 11 1010.5 - 0.0
28/07:00pm 25.4 25.9 20.0 72 3.5 NE 17 24 9 13 1010.3 - 0.0
28/06:30pm 25.6 26.6 20.2 72 3.5 ENE 15 19 8 10 1009.9 - 0.0
28/05:30pm 26.0 26.4 20.7 72 3.5 NE 19 26 10 14 1009.2 - 0.0
28/05:00pm 26.7 26.9 20.6 69 4.0 NE 20 28 11 15 1008.9 - 0.0
28/04:30pm 26.7 26.5 20.6 69 4.0 NE 22 28 12 15 1008.9 - 0.0
28/04:00pm 26.3 26.3 20.2 69 4.0 NE 20 26 11 14 1009.1 - 0.0
28/03:30pm 26.6 26.4 21.2 72 3.6 NE 24 32 13 17 1008.8 - 0.0
28/03:00pm 27.2 26.9 20.3 66 4.5 NE 22 30 12 16 1008.8 1008.8 0.0
28/02:30pm 27.8 28.6 21.7 69 4.1 NE 20 26 11 14 1009.0 - 0.0
28/02:00pm 28.1 28.9 21.7 68 4.3 NNE 20 28 11 15 1009.2 - 0.0
28/01:30pm 27.9 28.1 21.3 67 4.4 NE 22 30 12 16 1009.6 - 0.0
28/01:00pm 27.9 28.1 20.5 64 4.9 NE 20 28 11 15 1009.6 - 0.0
28/12:30pm 27.3 27.9 21.1 69 4.1 ENE 19 30 10 16 1010.2 - 0.0
28/12:00pm 27.1 27.9 20.7 68 4.2 ENE 17 22 9 12 1010.3 1010.3 0.0
28/11:30am 27.6 29.1 21.3 68 4.2 NNE 15 20 8 11 1010.4 - 0.0
28/11:00am 27.9 29.6 21.6 68 4.2 NE 15 19 8 10 1010.8 - 0.0
28/10:30am 27.7 29.9 21.1 67 4.4 NNE 11 17 6 9 1010.9 - 0.0
28/10:00am 26.5 28.8 20.7 70 3.8 N 9 13 5 7 1011.2 - 0.0
28/09:30am 26.8 30.1 21.5 72 3.5 NNE 6 11 3 6 1011.2 - 0.0
28/09:00am 26.1 30.2 20.8 72 3.5 CALM 0 7 0 4 1011.1 1011.1 0.0
28/08:30am 25.9 30.2 21.2 75 3.1 CALM 0 0 0 0 1011.0 - -
28/08:00am 25.8 28.5 21.3 76 3.0 WSW 9 13 5 7 1010.9 - 0.0
28/07:30am 25.6 30.1 21.5 78 2.7 CALM 0 0 0 0 1010.6 - 0.0
28/07:00am 24.7 29.0 21.2 81 2.3 CALM 0 0 0 0 1010.4 - 0.0
28/06:30am 23.6 27.4 21.0 85 1.7 SE 2 9 1 5 1010.2 - 0.0
28/06:00am 23.9 27.1 21.3 85 1.7 SSE 6 9 3 5 1009.9 1009.9 0.0
28/05:30am 23.3 25.6 20.7 85 1.7 SSE 9 13 5 7 1009.6 - 0.0
28/05:00am 23.2 25.7 21.1 88 1.4 S 9 13 5 7 1009.6 - 0.0
28/04:30am 23.1 26.0 21.1 88 1.3 SSW 7 11 4 6 1009.3 - 0.0
28/04:00am 23.3 26.3 21.2 88 1.4 NNE 7 9 4 5 1009.1 - 0.0
28/03:30am 23.2 25.6 20.9 87 1.5 NE 9 11 5 6 1008.9 - 0.0
28/03:00am 23.0 25.7 20.7 87 1.5 NNE 7 9 4 5 1009.1 1009.1 0.0
28/02:30am 23.7 26.3 20.5 82 2.1 NE 7 9 4 5 1009.3 - 0.0
28/02:00am 23.3 25.5 20.5 84 1.8 NNE 9 9 5 5 1009.3 - 0.0
28/01:30am 23.1 24.9 20.3 84 1.8 NNE 11 13 6 7 1009.5 - 0.0
28/01:00am 24.0 26.2 20.5 81 2.3 NE 9 11 5 6 1009.5 - 0.0
28/12:30am 23.9 25.9 20.7 82 2.1 NNE 11 13 6 7 1009.6 - 0.0
28/12:00am 24.4 26.2 20.4 78 2.6 NNE 11 19 6 10 1009.9 1009.9 0.0
 
Date/Time
EST
Temp
°C
App
Temp
°C
Dew
Point
Rel
Hum
%
Delta-T
°C
Wind Press
QNH
hPa
Press
MSL
hPa
Rain
since 9 am
mm
Dir
 
Spd
km/h
Gust
km/h
Spd
kts
Gust
kts
27/11:30pm 24.6 26.4 20.3 77 2.8 NNE 11 15 6 8 1010.0 - 0.0
27/11:00pm 24.2 26.1 20.5 80 2.4 NNE 11 17 6 9 1009.8 - 0.0
27/10:30pm 24.4 25.8 20.4 78 2.6 NNE 13 15 7 8 1009.8 - 0.0
27/10:00pm 24.2 25.5 20.2 78 2.6 NNE 13 15 7 8 1009.9 - 0.0
27/09:30pm 24.8 26.8 20.0 74 3.1 NE 9 13 5 7 1010.0 - 0.0
27/09:00pm 24.4 25.3 20.1 77 2.8 NE 15 19 8 10 1009.5 1009.5 0.0
27/08:30pm 24.8 26.0 20.0 74 3.1 NE 13 17 7 9 1009.8 - 0.0
27/08:00pm 24.9 26.1 19.8 73 3.3 NE 13 17 7 9 1009.6 - 0.0
27/07:30pm 25.1 25.9 19.9 73 3.4 NE 15 20 8 11 1008.8 - -
27/07:00pm 25.3 26.4 20.4 74 3.2 NE 15 20 8 11 1008.4 - 0.0
27/06:30pm 25.3 25.9 20.2 73 3.3 NE 17 26 9 14 1007.9 - 0.0
27/06:00pm 25.7 26.9 20.0 71 3.7 NE 13 19 7 10 1008.1 1008.1 0.0
27/05:30pm 25.8 25.9 20.0 70 3.8 NE 19 24 10 13 1007.4 - 0.0
27/05:00pm 26.8 26.5 19.6 64 4.7 NE 20 28 11 15 1007.1 - -
27/04:30pm 26.7 26.7 19.8 66 4.5 NE 19 26 10 14 1006.8 - 0.0
27/04:00pm 26.9 27.0 20.4 67 4.3 NE 20 28 11 15 1006.6 - 0.0
27/03:37pm 28.0 27.9 20.0 61 5.2 NE 20 28 11 15 1006.0 - -
27/03:30pm 27.5 27.5 20.2 64 4.8 NE 20 28 11 15 1006.7 - -
27/03:00pm 27.9 28.0 19.1 58 5.7 NE 17 24 9 13 1006.8 1006.8 0.0
27/02:30pm 28.3 28.1 18.5 55 6.3 NE 17 20 9 11 1006.9 - 0.0
27/02:00pm 27.7 28.1 19.9 62 5.1 NNE 17 20 9 11 1007.2 - 0.0
27/01:30pm 27.9 27.9 18.9 58 5.8 NE 17 22 9 12 1007.4 - 0.0
27/01:00pm 27.8 27.5 18.2 56 6.1 NE 17 24 9 13 1007.6 - 0.0
27/12:30pm 27.6 27.4 18.5 57 5.8 NE 17 20 9 11 1008.0 - 0.0
27/12:00pm 27.7 28.0 18.8 58 5.7 NNE 15 19 8 10 1008.1 1008.1 0.0
27/11:30am 27.2 27.8 19.5 62 5.0 NNE 15 19 8 10 1008.4 - 0.0
27/11:00am 27.7 29.6 19.0 59 5.6 E 7 11 4 6 1009.0 - 0.0
27/10:30am 26.4 27.8 19.6 66 4.4 NW 11 17 6 9 1009.2 - 0.0
27/10:00am 26.0 28.4 20.8 73 3.4 WSW 9 15 5 8 1009.3 - 0.0
27/09:30am 24.9 26.9 20.8 78 2.7 NW 11 22 6 12 1009.3 - 0.0
27/09:00am 24.1 26.0 21.4 85 1.8 WNW 13 20 7 11 1009.4 1009.4 2.2
27/08:30am 23.3 25.7 21.6 90 1.1 WNW 11 15 6 8 1009.5 - 2.2
27/08:00am 22.6 26.4 20.9 90 1.1 SW 2 7 1 4 1009.5 - 2.2
27/07:30am 22.1 23.7 20.7 92 0.9 NNE 13 17 7 9 1009.6 - 2.0
27/07:00am 21.8 24.1 20.6 93 0.8 E 9 17 5 9 1009.9 - 2.0
27/06:30am 21.6 23.7 20.2 92 0.9 E 9 15 5 8 1009.3 - 1.8
27/06:00am 21.7 23.2 20.6 93 0.7 ESE 13 20 7 11 1009.7 1009.7 1.0
27/05:30am 22.5 24.1 20.8 90 1.1 SSE 13 17 7 9 1009.4 - 0.0
27/05:00am 23.2 25.5 21.4 90 1.2 SW 11 13 6 7 1008.7 - 0.0
27/04:30am 23.6 27.4 20.2 81 2.2 CALM 0 0 0 0 1008.1 - 0.0
27/04:00am 23.6 26.8 20.5 83 2.0 NE 4 7 2 4 1007.7 - 0.0
27/03:30am 23.7 25.9 20.3 81 2.2 NNE 9 13 5 7 1007.5 - 0.0
27/03:00am 24.0 25.8 20.3 80 2.4 NNE 11 13 6 7 1007.3 1007.3 0.0
27/02:30am 24.4 26.1 20.2 77 2.7 NE 11 15 6 8 1007.2 - 0.0
27/02:00am 24.6 26.6 20.0 75 3.0 ENE 9 13 5 7 1007.7 - 0.0
27/01:30am 24.4 26.5 20.2 77 2.7 NE 9 15 5 8 1007.6 - 0.0
27/01:00am 23.9 26.1 20.5 81 2.2 NE 9 15 5 8 1007.8 - 0.0
27/12:30am 23.9 25.9 20.0 79 2.5 NE 9 15 5 8 1008.1 - 0.0
27/12:00am 24.5 26.1 19.9 75 3.0 NE 11 15 6 8 1008.1 1008.1 0.0
 
Date/Time
EST
Temp
°C
App
Temp
°C
Dew
Point
Rel
Hum
%
Delta-T
°C
Wind Press
QNH
hPa
Press
MSL
hPa
Rain
since 9 am
mm
Dir
 
Spd
km/h
Gust
km/h
Spd
kts
Gust
kts
26/11:30pm 24.6 26.6 20.0 75 3.0 NE 9 13 5 7 1008.6 - 0.0
26/11:00pm 24.2 26.3 20.2 78 2.6 NE 9 11 5 6 1009.0 - 0.0
26/10:30pm 24.6 26.4 19.6 73 3.2 ENE 9 11 5 6 1009.1 - 0.0
26/10:00pm 24.6 26.0 19.5 73 3.3 ENE 11 13 6 7 1009.0 - 0.0
26/09:30pm 24.6 25.8 19.0 71 3.6 NE 11 17 6 9 1008.6 - 0.0
26/09:00pm 24.2 26.0 19.5 75 3.0 NE 9 11 5 6 1009.0 1009.0 0.0
26/08:30pm 24.7 25.7 19.4 72 3.4 NE 13 17 7 9 1008.6 - 0.0
26/08:00pm 24.7 25.8 18.9 70 3.7 E 11 15 6 8 1008.6 - 0.0
26/07:30pm 24.9 26.7 18.8 69 3.9 E 7 11 4 6 1008.9 - 0.0
26/07:00pm 25.0 26.3 18.5 67 4.1 E 9 17 5 9 1008.3 - 0.0
26/06:30pm 25.2 25.0 18.6 67 4.2 ENE 17 24 9 13 1007.4 - 0.0
26/06:00pm 25.3 26.1 19.1 68 4.0 E 13 19 7 10 1007.6 1007.6 0.0
26/05:30pm 25.6 26.2 19.4 68 4.0 ENE 15 22 8 12 1007.4 - 0.0
26/05:00pm 25.7 26.1 19.8 70 3.8 ENE 17 24 9 13 1007.1 - 0.0
26/04:30pm 26.0 26.7 19.7 68 4.1 E 15 22 8 12 1007.1 - 0.0
26/04:00pm 26.3 26.6 19.7 67 4.3 ENE 17 26 9 14 1007.2 - 0.0
26/03:30pm 26.8 27.1 19.6 64 4.7 ENE 17 22 9 12 1007.2 - 0.0
26/03:00pm 27.4 27.7 19.7 63 5.0 ENE 17 24 9 13 1007.2 1007.2 0.0
26/02:30pm 27.0 27.2 19.3 62 5.0 ENE 17 26 9 14 1007.5 - 0.0

Other Formats:

Comma delimited format used in spreadsheet applications
http://www.bom.gov.au/fwo/IDQ60801/IDQ60801.94578.axf

JavaScript Object Notation format (JSON) in row-major order
http://www.bom.gov.au/fwo/IDQ60801/IDQ60801.94578.json